Pittsburgh, Pennsylvania
Traffic Map
Current Weather Conditions
Pittsburgh, Pennsylvania
Overcast
Overcast
57°
Feels Like: 57°
Wind Chill: 57° Ceiling: 400
Heat Index: 57° Visibility: 8mi
Dew Point: 55° Wind: 9mph
Humidity: 93% Direction: 180° (S)
Pressure: 29.91in Gusts: 0mph
Raw Report DataKAGC 010953Z 18008KT 8SM BKN004 OVC016 14/13 A2991 RMK AO2 SLP131 T01390128
Traffic Incident Summary
Active as of:
Severity:
Category:
InformationThere was an issue retrieving the traffic information for this location. Please try a different location or try again shortly.
Advertisements
Track Severe Weather on mobile